createdAt,value
2023-08-15T00:01:08.455Z,2.67
2023-08-15T00:03:36.052Z,2.67
2023-08-15T00:06:03.815Z,2.90
2023-08-15T00:08:31.343Z,3.20
2023-08-15T00:10:58.997Z,2.65
2023-08-15T00:13:26.547Z,2.40
2023-08-15T00:15:54.558Z,2.50
2023-08-15T00:18:22.401Z,2.97
2023-08-15T00:20:50.122Z,2.70
2023-08-15T00:23:17.958Z,2.33
2023-08-15T00:25:45.565Z,2.65
2023-08-15T00:28:13.199Z,2.50
2023-08-15T00:30:40.847Z,2.80
2023-08-15T00:33:08.625Z,2.50
2023-08-15T00:35:36.234Z,2.78
2023-08-15T00:38:04.801Z,2.58
2023-08-15T00:40:32.514Z,2.72
2023-08-15T00:43:00.127Z,2.60
2023-08-15T00:45:28.027Z,2.60
2023-08-15T00:47:55.798Z,2.40
2023-08-15T00:50:24.481Z,2.10
2023-08-15T00:52:52.650Z,2.50
2023-08-15T00:55:20.553Z,2.13
2023-08-15T00:57:48.576Z,2.10
2023-08-15T01:00:16.972Z,2.38
2023-08-15T01:02:44.816Z,2.33
2023-08-15T01:05:17.210Z,2.60
2023-08-15T01:07:45.402Z,2.92
2023-08-15T01:10:13.028Z,3.35
2023-08-15T01:13:06.431Z,3.00
2023-08-15T01:15:39.194Z,2.53
2023-08-15T01:18:37.687Z,3.05
2023-08-15T01:21:07.566Z,2.72
2023-08-15T01:23:45.726Z,2.30
2023-08-15T01:26:13.432Z,2.28
2023-08-15T01:28:41.058Z,2.60
2023-08-15T01:31:29.402Z,2.90
2023-08-15T01:34:03.130Z,2.80
2023-08-15T01:36:34.528Z,3.10
2023-08-15T01:39:05.517Z,2.72
2023-08-15T01:41:39.819Z,3.22
2023-08-15T01:44:10.393Z,2.67
2023-08-15T01:46:38.257Z,3.20
2023-08-15T01:49:05.878Z,3.70
2023-08-15T01:51:33.464Z,3.78
2023-08-15T01:54:00.998Z,2.80
2023-08-15T01:56:28.563Z,3.38
2023-08-15T01:58:56.164Z,3.40
2023-08-15T02:01:23.839Z,3.72
2023-08-15T02:03:51.529Z,3.90
2023-08-15T02:06:19.081Z,3.33
2023-08-15T02:08:46.985Z,3.47
2023-08-15T02:11:14.642Z,3.45
2023-08-15T02:13:42.457Z,3.85
2023-08-15T02:16:10.073Z,3.33
2023-08-15T02:18:42.123Z,3.75
2023-08-15T02:21:11.212Z,3.40
2023-08-15T02:23:38.865Z,3.58
2023-08-15T02:26:06.484Z,3.70
2023-08-15T02:28:34.106Z,3.83
2023-08-15T02:31:05.904Z,3.50
2023-08-15T02:33:34.116Z,3.80
2023-08-15T02:36:09.086Z,3.58
2023-08-15T02:38:38.769Z,3.75
2023-08-15T02:41:07.321Z,3.08
2023-08-15T02:43:35.017Z,3.55
2023-08-15T02:46:02.874Z,3.42
2023-08-15T02:48:30.497Z,3.60
2023-08-15T02:50:58.100Z,3.53
2023-08-15T02:53:26.127Z,3.75
2023-08-15T02:55:53.758Z,3.80
2023-08-15T02:58:21.535Z,4.53
2023-08-15T03:00:49.178Z,3.28
2023-08-15T03:03:17.106Z,3.60
2023-08-15T03:05:44.803Z,3.78
2023-08-15T03:08:12.390Z,3.85
2023-08-15T03:10:40.956Z,4.03
2023-08-15T03:13:08.649Z,4.07
2023-08-15T03:15:37.469Z,3.63
2023-08-15T03:18:05.433Z,3.90
2023-08-15T03:20:33.007Z,3.80
2023-08-15T03:23:03.917Z,3.95
2023-08-15T03:25:31.710Z,3.42
2023-08-15T03:27:59.494Z,3.35
2023-08-15T03:30:28.257Z,3.88
2023-08-15T03:32:55.855Z,3.83
2023-08-15T03:35:23.939Z,3.70
2023-08-15T03:37:51.844Z,3.13
2023-08-15T03:40:19.979Z,3.50
2023-08-15T03:42:47.822Z,3.67
2023-08-15T03:45:15.930Z,4.00
2023-08-15T03:47:43.890Z,4.68
2023-08-15T03:50:15.010Z,4.68
2023-08-15T03:52:42.925Z,4.32
2023-08-15T03:55:10.799Z,4.70
2023-08-15T03:57:39.283Z,4.03
2023-08-15T04:00:10.451Z,4.15
2023-08-15T04:02:44.244Z,4.38
2023-08-15T04:05:12.490Z,4.45
2023-08-15T04:07:43.446Z,4.30
2023-08-15T04:10:13.381Z,4.40
2023-08-15T04:12:41.787Z,3.90
2023-08-15T04:15:09.906Z,3.70
2023-08-15T04:17:37.960Z,3.47
2023-08-15T04:20:06.340Z,3.80
2023-08-15T04:22:34.882Z,3.90
2023-08-15T04:25:02.784Z,4.30
2023-08-15T04:27:30.625Z,4.07
2023-08-15T04:29:58.521Z,4.60
2023-08-15T04:32:26.435Z,4.68
2023-08-15T04:34:54.323Z,4.70
2023-08-15T04:37:22.708Z,3.95
2023-08-15T04:39:52.008Z,4.55
2023-08-15T04:42:20.074Z,4.25
2023-08-15T04:44:48.104Z,4.95
2023-08-15T04:47:17.277Z,5.63
2023-08-15T04:49:45.204Z,4.85
2023-08-15T04:52:15.423Z,5.25
2023-08-15T04:54:43.886Z,4.70
2023-08-15T04:57:11.951Z,5.68
2023-08-15T04:59:39.829Z,5.15
2023-08-15T05:02:07.734Z,5.35
2023-08-15T05:04:35.655Z,5.25
2023-08-15T05:07:03.691Z,5.50
2023-08-15T05:09:31.612Z,5.60
2023-08-15T05:11:59.561Z,4.53
2023-08-15T05:14:27.387Z,5.50
2023-08-15T05:16:55.438Z,4.72
2023-08-15T05:19:23.574Z,4.85
2023-08-15T05:21:51.426Z,5.25
2023-08-15T05:24:20.493Z,4.72
2023-08-15T05:26:48.431Z,5.65
2023-08-15T05:29:16.329Z,5.03
2023-08-15T05:31:44.193Z,4.93
2023-08-15T05:34:12.205Z,4.78
2023-08-15T05:36:40.072Z,4.82
2023-08-15T05:39:08.682Z,4.10
2023-08-15T05:41:36.499Z,4.70
2023-08-15T05:44:04.393Z,4.85
2023-08-15T05:46:32.344Z,4.45
2023-08-15T05:49:00.310Z,4.10
2023-08-15T05:51:28.192Z,4.78
2023-08-15T05:53:56.005Z,4.78
2023-08-15T05:56:23.880Z,4.97
2023-08-15T05:58:51.699Z,5.20
2023-08-15T06:01:22.291Z,4.00
2023-08-15T06:03:53.078Z,3.58
2023-08-15T06:06:22.605Z,3.25
2023-08-15T06:08:50.691Z,2.90
2023-08-15T06:11:18.607Z,3.05
2023-08-15T06:13:46.490Z,3.08
2023-08-15T06:16:14.389Z,3.00
2023-08-15T06:18:42.298Z,2.80
2023-08-15T06:21:10.272Z,2.20
2023-08-15T06:23:38.175Z,2.65
2023-08-15T06:26:06.084Z,2.72
2023-08-15T06:28:34.007Z,2.47
2023-08-15T06:31:01.915Z,2.50
2023-08-15T06:33:29.880Z,3.08
2023-08-15T06:35:57.729Z,2.78
2023-08-15T06:38:26.526Z,2.65
2023-08-15T06:40:54.426Z,2.60
2023-08-15T06:43:22.261Z,2.78
2023-08-15T06:45:50.158Z,3.00
2023-08-15T06:48:18.148Z,2.80
2023-08-15T06:50:47.406Z,2.60
2023-08-15T06:53:15.700Z,2.53
2023-08-15T06:55:43.526Z,2.60
2023-08-15T06:58:11.392Z,2.80
2023-08-15T07:00:39.368Z,2.47
2023-08-15T07:03:08.512Z,2.20
2023-08-15T07:05:36.893Z,2.67
2023-08-15T07:08:04.678Z,2.38
2023-08-15T07:10:33.717Z,2.03
2023-08-15T07:13:01.808Z,1.88
2023-08-15T07:15:29.800Z,2.92
2023-08-15T07:17:58.004Z,2.05
2023-08-15T07:20:26.042Z,2.17
2023-08-15T07:22:56.317Z,1.63
2023-08-15T07:25:24.496Z,2.03
2023-08-15T07:27:52.433Z,1.75
2023-08-15T07:30:20.564Z,1.70
2023-08-15T07:32:48.658Z,1.67
2023-08-15T07:35:16.146Z,2.30
2023-08-15T07:37:44.147Z,1.88
2023-08-15T07:40:21.096Z,2.20
2023-08-15T07:42:54.267Z,2.75
2023-08-15T07:45:22.961Z,1.40
2023-08-15T07:47:53.532Z,1.90
2023-08-15T07:50:28.898Z,1.75
2023-08-15T07:52:59.476Z,1.48
2023-08-15T07:55:34.090Z,1.65
2023-08-15T07:58:01.926Z,1.83
2023-08-15T08:00:30.220Z,1.67
2023-08-15T08:03:01.073Z,2.08
2023-08-15T08:05:32.749Z,1.70
2023-08-15T08:08:02.961Z,1.73
2023-08-15T08:10:30.573Z,2.13
2023-08-15T08:13:00.902Z,2.00
2023-08-15T08:15:29.365Z,1.80
2023-08-15T08:17:56.898Z,1.85
2023-08-15T08:20:24.647Z,1.90
2023-08-15T08:22:52.590Z,2.05
2023-08-15T08:25:22.818Z,1.85
2023-08-15T08:27:51.027Z,2.10
2023-08-15T08:30:24.838Z,1.90
2023-08-15T08:32:54.063Z,1.95
2023-08-15T08:35:21.655Z,2.30
2023-08-15T08:37:49.370Z,2.15
2023-08-15T08:40:18.598Z,1.83
2023-08-15T08:42:47.032Z,1.98
2023-08-15T08:45:15.205Z,1.90
2023-08-15T08:47:45.009Z,1.95
2023-08-15T08:50:13.052Z,2.22
2023-08-15T08:52:50.183Z,1.80
2023-08-15T08:55:22.638Z,1.90
2023-08-15T08:57:56.090Z,1.90
2023-08-15T09:00:30.251Z,1.60
2023-08-15T09:02:58.747Z,2.00
2023-08-15T09:05:27.955Z,1.98
2023-08-15T09:07:56.054Z,1.90
2023-08-15T09:10:24.240Z,1.63
2023-08-15T09:12:57.389Z,2.30
2023-08-15T09:15:25.484Z,3.20
2023-08-15T09:18:02.430Z,1.85
2023-08-15T09:20:30.341Z,2.45
2023-08-15T09:22:59.416Z,2.83
2023-08-15T09:25:28.581Z,2.20
2023-08-15T09:27:56.188Z,1.80
2023-08-15T09:30:23.796Z,1.80
2023-08-15T09:32:51.479Z,1.75
2023-08-15T09:35:19.979Z,1.55
2023-08-15T09:37:49.431Z,1.50
2023-08-15T09:40:19.119Z,1.60
2023-08-15T09:42:47.107Z,1.58
2023-08-15T09:45:15.809Z,1.02
2023-08-15T09:47:44.755Z,1.10
2023-08-15T09:50:14.366Z,1.52
2023-08-15T09:52:44.385Z,1.25
2023-08-15T09:55:13.549Z,1.23
2023-08-15T09:57:42.950Z,2.42
2023-08-15T10:00:18.838Z,1.23
2023-08-15T10:03:07.721Z,1.00
2023-08-15T10:05:37.524Z,0.93
2023-08-15T10:08:05.668Z,1.23
2023-08-15T10:10:35.938Z,1.20
2023-08-15T10:13:05.199Z,1.27
2023-08-15T10:18:02.301Z,0.90
2023-08-15T10:20:36.524Z,1.30
2023-08-15T10:23:09.955Z,0.77
2023-08-15T10:25:40.294Z,0.80
2023-08-15T10:28:13.208Z,0.60
2023-08-15T10:30:48.572Z,0.80
2023-08-15T10:33:25.240Z,0.73
2023-08-15T10:35:55.941Z,0.50
2023-08-15T10:41:20.566Z,0.75
2023-08-15T10:44:00.289Z,0.77
2023-08-15T10:46:31.019Z,0.80
2023-08-15T10:49:12.622Z,0.88
2023-08-15T10:51:42.390Z,0.73
2023-08-15T10:54:12.331Z,0.80
2023-08-15T10:56:41.817Z,0.63
2023-08-15T11:01:39.100Z,1.10
2023-08-15T11:06:48.214Z,0.90
2023-08-15T11:09:17.068Z,0.77
2023-08-15T11:11:48.084Z,0.80
2023-08-15T11:14:20.114Z,0.63
2023-08-15T11:16:49.336Z,0.70
2023-08-15T11:19:17.902Z,0.70
2023-08-15T11:21:45.921Z,0.80
2023-08-15T11:24:13.686Z,0.73
2023-08-15T11:26:41.941Z,0.80
2023-08-15T11:29:12.009Z,1.00
2023-08-15T11:31:40.035Z,0.75
2023-08-15T11:34:09.495Z,1.13
2023-08-15T11:36:37.713Z,0.90
2023-08-15T11:39:05.517Z,1.08
2023-08-15T11:41:36.211Z,0.82
2023-08-15T11:44:05.268Z,0.88
2023-08-15T11:46:54.038Z,1.33
2023-08-15T11:49:23.887Z,1.10
2023-08-15T11:51:52.270Z,1.10
2023-08-15T11:54:26.000Z,1.40
2023-08-15T11:56:55.371Z,1.20
2023-08-15T11:59:24.667Z,1.20
2023-08-15T12:02:27.599Z,1.10
2023-08-15T12:04:55.371Z,1.40
2023-08-15T12:07:23.181Z,1.50
2023-08-15T12:09:51.034Z,1.35
2023-08-15T12:12:20.830Z,1.17
2023-08-15T12:14:51.544Z,1.33
2023-08-15T12:17:19.413Z,1.52
2023-08-15T12:19:47.014Z,1.50
2023-08-15T12:22:14.660Z,1.00
2023-08-15T12:24:42.202Z,1.10
2023-08-15T12:27:09.838Z,1.15
2023-08-15T12:30:10.667Z,0.90
2023-08-15T12:32:25.579Z,0.80
2023-08-15T12:34:53.222Z,1.17
2023-08-15T12:37:20.864Z,1.20
2023-08-15T12:39:48.531Z,0.85
2023-08-15T12:42:17.482Z,0.80
2023-08-15T12:47:13.484Z,0.90
2023-08-15T12:49:41.069Z,0.93
2023-08-15T12:52:08.821Z,1.00
2023-08-15T12:54:37.035Z,1.02
2023-08-15T12:57:04.724Z,1.35
2023-08-15T12:59:32.342Z,1.17
2023-08-15T13:02:00.000Z,0.70
2023-08-15T13:04:27.627Z,1.00
2023-08-15T13:06:55.274Z,0.93
2023-08-15T13:09:22.863Z,1.02
2023-08-15T13:11:50.660Z,0.98
2023-08-15T13:14:20.622Z,1.00
2023-08-15T13:16:50.444Z,1.10
2023-08-15T13:19:18.214Z,1.00
2023-08-15T13:21:45.952Z,1.00
2023-08-15T13:24:13.506Z,0.90
2023-08-15T13:26:41.179Z,0.70
2023-08-15T13:29:08.777Z,1.17
2023-08-15T13:31:36.518Z,0.95
2023-08-15T13:34:04.326Z,0.90
2023-08-15T13:36:31.984Z,1.15
2023-08-15T13:38:59.652Z,1.35
2023-08-15T13:41:27.548Z,1.10
2023-08-15T13:43:55.123Z,1.20
2023-08-15T13:46:22.705Z,1.50
2023-08-15T13:48:50.382Z,1.00
2023-08-15T13:51:20.958Z,1.17
2023-08-15T13:53:49.550Z,1.13
2023-08-15T13:56:17.572Z,0.80
2023-08-15T13:58:45.329Z,0.70
2023-08-15T14:01:13.016Z,0.80
2023-08-15T14:03:40.819Z,0.77
2023-08-15T14:06:08.730Z,1.20
2023-08-15T14:08:36.371Z,1.05
2023-08-15T14:11:05.133Z,0.77
2023-08-15T14:13:34.020Z,1.38
2023-08-15T14:16:04.451Z,0.90
2023-08-15T14:18:33.648Z,0.90
2023-08-15T14:21:01.207Z,1.30
2023-08-15T14:23:30.301Z,1.08
2023-08-15T14:25:58.274Z,0.73
2023-08-15T14:28:25.858Z,0.93
2023-08-15T14:30:53.548Z,0.60
2023-08-15T14:33:21.253Z,1.02
2023-08-15T14:35:50.316Z,0.60
2023-08-15T14:38:17.910Z,1.17
2023-08-15T14:40:45.547Z,1.92
2023-08-15T14:43:13.206Z,0.90
2023-08-15T14:45:40.967Z,0.80
2023-08-15T14:48:08.583Z,0.73
2023-08-15T14:50:36.830Z,0.70
2023-08-15T14:53:04.601Z,0.65
2023-08-15T14:55:33.270Z,0.80
2023-08-15T14:58:01.187Z,0.63
2023-08-15T15:00:28.733Z,0.65
2023-08-15T15:02:56.383Z,0.80
2023-08-15T15:05:24.052Z,0.80
2023-08-15T15:07:51.637Z,0.52
2023-08-15T15:10:19.275Z,1.02
2023-08-15T15:12:48.445Z,0.95
2023-08-15T15:15:16.006Z,0.80
2023-08-15T15:17:43.791Z,0.90
2023-08-15T15:20:12.048Z,1.00
2023-08-15T15:22:39.657Z,0.98
2023-08-15T15:25:07.864Z,0.90
2023-08-15T15:27:35.725Z,0.98
2023-08-15T15:30:04.037Z,0.60
2023-08-15T15:32:32.102Z,0.70
2023-08-15T15:34:59.716Z,0.57
2023-08-15T15:37:27.400Z,0.50
2023-08-15T15:39:54.934Z,0.50
2023-08-15T15:42:22.847Z,0.40
2023-08-15T15:44:50.694Z,0.40
2023-08-15T15:47:18.320Z,0.60
2023-08-15T15:49:45.828Z,0.80
2023-08-15T15:52:13.484Z,0.65
2023-08-15T15:54:41.134Z,0.68
2023-08-15T15:57:08.871Z,0.40
2023-08-15T15:59:36.458Z,0.60
2023-08-15T16:02:04.053Z,1.00
2023-08-15T16:04:31.773Z,1.00
2023-08-15T16:06:59.358Z,1.10
2023-08-15T16:09:26.966Z,1.70
2023-08-15T16:11:54.492Z,1.20
2023-08-15T16:14:22.307Z,1.38
2023-08-15T16:16:50.190Z,1.38
2023-08-15T16:19:17.858Z,1.52
2023-08-15T16:21:45.369Z,1.35
2023-08-15T16:24:12.902Z,1.50
2023-08-15T16:26:40.484Z,1.40
2023-08-15T16:29:08.330Z,1.40
2023-08-15T16:31:35.909Z,1.95
2023-08-15T16:34:03.838Z,1.65
2023-08-15T16:36:31.509Z,1.83
2023-08-15T16:38:59.233Z,1.63
2023-08-15T16:41:26.803Z,1.60
2023-08-15T16:43:55.972Z,1.83
2023-08-15T16:46:24.188Z,1.80
2023-08-15T16:48:51.976Z,7.72
2023-08-15T16:51:19.605Z,1.48
2023-08-15T16:53:47.237Z,2.03
2023-08-15T16:56:15.746Z,1.67
2023-08-15T16:58:45.524Z,1.38
2023-08-15T17:01:14.056Z,1.20
2023-08-15T17:03:41.883Z,1.08
2023-08-15T17:06:09.596Z,1.13
2023-08-15T17:08:37.181Z,1.00
2023-08-15T17:11:06.027Z,1.05
2023-08-15T17:13:33.599Z,1.23
2023-08-15T17:16:01.292Z,1.20
2023-08-15T17:18:29.007Z,1.50
2023-08-15T17:20:56.700Z,1.13
2023-08-15T17:23:24.752Z,2.10
2023-08-15T17:25:52.387Z,1.38
2023-08-15T17:28:19.981Z,1.40
2023-08-15T17:30:47.696Z,1.63
2023-08-15T17:33:15.407Z,1.67
2023-08-15T17:35:44.524Z,1.67
2023-08-15T17:38:12.259Z,1.52
2023-08-15T17:40:39.945Z,2.50
2023-08-15T17:43:07.704Z,2.20
2023-08-15T17:45:39.646Z,2.03
2023-08-15T17:48:07.419Z,1.52
2023-08-15T17:50:35.535Z,1.80
2023-08-15T17:53:03.373Z,1.52
2023-08-15T17:55:31.029Z,2.00
2023-08-15T17:57:58.658Z,1.40
2023-08-15T18:00:27.788Z,1.92
2023-08-15T18:02:58.566Z,1.45
2023-08-15T18:05:27.356Z,1.00
2023-08-15T18:07:54.905Z,1.10
2023-08-15T18:10:22.637Z,1.00
2023-08-15T18:12:50.235Z,0.93
2023-08-15T18:15:17.839Z,1.08
2023-08-15T18:17:46.646Z,1.30
2023-08-15T18:20:14.435Z,1.85
2023-08-15T18:22:42.878Z,0.90
2023-08-15T18:25:10.447Z,0.90
2023-08-15T18:27:38.074Z,0.90
2023-08-15T18:30:06.233Z,0.85
2023-08-15T18:32:33.923Z,1.02
2023-08-15T18:35:01.733Z,1.10
2023-08-15T18:37:29.468Z,0.93
2023-08-15T18:39:57.077Z,1.10
2023-08-15T18:42:24.927Z,1.05
2023-08-15T18:44:52.495Z,0.98
2023-08-15T18:47:20.123Z,1.00
2023-08-15T18:49:47.753Z,1.35
2023-08-15T18:52:18.815Z,1.40
2023-08-15T18:54:46.439Z,1.20
2023-08-15T18:57:14.052Z,1.10
2023-08-15T18:59:41.729Z,1.33
2023-08-15T19:02:09.549Z,0.98
2023-08-15T19:04:37.164Z,1.17
2023-08-15T19:07:05.327Z,1.45
2023-08-15T19:09:32.990Z,1.23
2023-08-15T19:12:01.509Z,1.15
2023-08-15T19:14:30.883Z,1.33
2023-08-15T19:17:03.697Z,1.83
2023-08-15T19:19:31.438Z,2.10
2023-08-15T19:21:58.956Z,2.00
2023-08-15T19:24:26.519Z,2.50
2023-08-15T19:26:55.761Z,2.28
2023-08-15T19:29:23.418Z,2.05
2023-08-15T19:31:51.082Z,1.60
2023-08-15T19:34:19.647Z,1.67
2023-08-15T19:36:49.890Z,1.70
2023-08-15T19:39:19.115Z,1.70
2023-08-15T19:41:51.588Z,2.00
2023-08-15T19:44:21.295Z,3.28
2023-08-15T19:46:55.716Z,2.10
2023-08-15T19:49:25.101Z,1.75
2023-08-15T19:51:52.618Z,1.80
2023-08-15T19:54:20.159Z,1.80
2023-08-15T19:56:47.731Z,1.50
2023-08-15T19:59:15.286Z,1.67
2023-08-15T20:01:43.094Z,1.80
2023-08-15T20:04:10.902Z,1.48
2023-08-15T20:06:39.048Z,1.70
2023-08-15T20:09:06.703Z,1.70
2023-08-15T20:11:34.339Z,2.20
2023-08-15T20:14:01.832Z,2.97
2023-08-15T20:16:29.429Z,2.60
2023-08-15T20:18:57.156Z,3.38
2023-08-15T20:21:24.845Z,2.72
2023-08-15T20:23:52.412Z,3.03
2023-08-15T20:26:20.000Z,3.17
2023-08-15T20:28:47.601Z,3.47
2023-08-15T20:31:15.501Z,3.13
2023-08-15T20:33:43.131Z,3.55
2023-08-15T20:36:14.502Z,2.70
2023-08-15T20:38:42.207Z,3.22
2023-08-15T20:41:09.894Z,2.95
2023-08-15T20:43:37.509Z,3.40
2023-08-15T20:46:05.098Z,5.53
2023-08-15T20:48:32.745Z,3.78
2023-08-15T20:51:00.271Z,3.03
2023-08-15T20:53:27.948Z,2.90
2023-08-15T20:55:55.625Z,3.30
2023-08-15T20:58:23.337Z,3.55
2023-08-15T21:00:51.757Z,3.25
2023-08-15T21:03:19.456Z,3.40
2023-08-15T21:05:47.392Z,3.13
2023-08-15T21:08:15.049Z,2.78
2023-08-15T21:10:42.691Z,2.92
2023-08-15T21:13:10.253Z,3.05
2023-08-15T21:15:37.857Z,2.53
2023-08-15T21:18:05.601Z,3.08
2023-08-15T21:20:33.203Z,3.80
2023-08-15T21:23:00.846Z,4.03
2023-08-15T21:25:28.468Z,3.20
2023-08-15T21:27:57.194Z,3.40
2023-08-15T21:30:24.827Z,3.10
2023-08-15T21:32:52.424Z,2.60
2023-08-15T21:35:20.071Z,2.58
2023-08-15T21:37:47.678Z,2.20
2023-08-15T21:40:15.405Z,2.50
2023-08-15T21:42:43.182Z,2.20
2023-08-15T21:45:10.990Z,2.08
2023-08-15T21:47:38.656Z,2.33
2023-08-15T21:50:08.075Z,2.42
2023-08-15T21:52:35.708Z,2.00
2023-08-15T21:55:03.395Z,2.28
2023-08-15T21:57:30.900Z,2.22
2023-08-15T21:59:58.478Z,2.05
2023-08-15T22:02:26.043Z,2.10
2023-08-15T22:04:53.612Z,2.53
2023-08-15T22:07:21.551Z,2.30
2023-08-15T22:09:49.518Z,2.20
2023-08-15T22:12:17.515Z,2.10
2023-08-15T22:14:45.142Z,1.75
2023-08-15T22:17:12.794Z,1.80
2023-08-15T22:19:40.459Z,2.20
2023-08-15T22:22:08.274Z,2.22
2023-08-15T22:24:35.764Z,2.00
2023-08-15T22:27:04.304Z,2.10
2023-08-15T22:29:31.863Z,2.50
2023-08-15T22:31:59.561Z,2.05
2023-08-15T22:34:27.136Z,2.33
2023-08-15T22:36:55.075Z,2.75
2023-08-15T22:39:22.686Z,2.25
2023-08-15T22:41:52.402Z,2.90
2023-08-15T22:44:19.999Z,3.00
2023-08-15T22:46:47.594Z,2.88
2023-08-15T22:49:15.113Z,3.20
2023-08-15T22:51:42.642Z,2.38
2023-08-15T22:54:10.706Z,2.42
2023-08-15T22:56:38.282Z,2.70
2023-08-15T22:59:05.860Z,2.22
2023-08-15T23:01:33.517Z,2.58
2023-08-15T23:04:01.195Z,2.70
2023-08-15T23:06:28.933Z,2.75
2023-08-15T23:08:56.505Z,2.58
2023-08-15T23:11:24.623Z,2.25
2023-08-15T23:13:52.133Z,2.50
2023-08-15T23:16:19.738Z,2.65
2023-08-15T23:18:47.382Z,2.60
2023-08-15T23:21:14.995Z,2.65
2023-08-15T23:23:44.234Z,2.60
2023-08-15T23:26:11.818Z,2.70
2023-08-15T23:28:39.374Z,2.58
2023-08-15T23:31:06.994Z,2.05
2023-08-15T23:33:34.573Z,2.63
2023-08-15T23:36:02.142Z,2.45
2023-08-15T23:38:30.353Z,2.75
2023-08-15T23:40:57.988Z,2.78
2023-08-15T23:43:25.534Z,2.15
2023-08-15T23:45:53.065Z,2.30
2023-08-15T23:48:21.823Z,2.00
2023-08-15T23:50:50.206Z,2.13
2023-08-15T23:53:17.836Z,2.47
2023-08-15T23:55:45.448Z,1.88
2023-08-15T23:58:13.004Z,2.00
